Montezuma Creek, Utah
Current Conditions -  °F | °C
As of 10:35 PM on Friday 19 Dec 2014 (Local Time) from KBDG Reporting Station
Clear Clear  
Wind Chill: 20°   Ceiling: Unl
Heat Index: 26°   Visibility: 10mi
Dew Point: 25°   Wind: 6mph
Humidity: 94%   Direction: 360°N
Pressure: 30.27"   Gusts: NA
Location:  37.26°N, 109.31°W
Report Text: KBDG 200535Z AUTO 36005KT 10SM CLR M03/M04 A3027 RMK AO1 T10321040
Loading
Personal Weather Stations






























Interactive Weather Map New forecast layout! Learn more

10-Day Weather Forecast

Advertisements
Track Severe Weather on mobile